Time;durP1;ratioP1;P1;durP2;ratioP2;P2;SDS_P1;SDS_P2;PMS_P1;PMS_P2;Temp;Humidity;BMP_temperature;BMP_pressure;BME280_temperature;BME280_humidity;BME280_pressure;Samples;Min_cycle;Max_cycle;Signal;HPM_P1;HPM_P2
2022/12/04 00:01:09;;;;;;;15.05;10.48;;;;;;;-3.64;76.41;101921.29;1702736;81;21053;-71
2022/12/04 00:03:36;;;;;;;14.65;9.55;;;;;;;-3.61;76.30;101927.75;1718887;82;21070;-72
2022/12/04 00:06:10;;;;;;;13.62;9.40;;;;;;;-3.62;76.02;101932.52;1724366;82;21025;-72
2022/12/04 00:08:36;;;;;;;14.90;10.25;;;;;;;-3.62;75.89;101935.96;1727882;82;21017;-72
2022/12/04 00:11:04;;;;;;;16.30;10.23;;;;;;;-3.65;75.79;101925.64;1722592;82;21939;-74
2022/12/04 00:13:31;;;;;;;16.12;10.48;;;;;;;-3.68;75.70;101932.16;1721352;81;21136;-72
2022/12/04 00:15:58;;;;;;;15.20;10.25;;;;;;;-3.67;75.51;101942.11;1726204;81;21072;-72
2022/12/04 00:18:25;;;;;;;14.70;9.30;;;;;;;-3.68;75.11;101947.75;1701852;82;21564;-73
2022/12/04 00:20:51;;;;;;;18.32;10.68;;;;;;;-3.77;74.97;101937.08;1724035;81;21362;-74
2022/12/04 00:23:17;;;;;;;16.10;9.53;;;;;;;-3.83;75.08;101937.59;1720105;81;21149;-72
2022/12/04 00:25:47;;;;;;;14.33;9.05;;;;;;;-3.82;75.23;101938.02;1718781;81;21045;-72
2022/12/04 00:28:15;;;;;;;15.00;9.33;;;;;;;-3.81;75.20;101939.27;1725667;82;21549;-72
2022/12/04 00:30:43;;;;;;;15.45;10.38;;;;;;;-3.77;75.31;101938.79;1723960;82;21211;-72
2022/12/04 00:33:11;;;;;;;14.65;9.68;;;;;;;-3.74;75.26;101937.91;1733312;81;21076;-72
2022/12/04 00:35:38;;;;;;;14.20;9.88;;;;;;;-3.69;74.97;101939.98;1724140;82;21836;-73
2022/12/04 00:38:06;;;;;;;13.83;8.93;;;;;;;-3.73;74.99;101930.52;1731554;81;21076;-72
2022/12/04 00:40:34;;;;;;;15.80;10.75;;;;;;;-3.72;74.69;101938.74;1731018;82;21052;-72
2022/12/04 00:43:00;;;;;;;16.40;10.15;;;;;;;-3.77;74.71;101931.87;1714968;83;21024;-73
2022/12/04 00:45:27;;;;;;;15.05;9.58;;;;;;;-3.78;74.79;101934.49;1720630;81;21556;-73
2022/12/04 00:47:53;;;;;;;14.65;10.35;;;;;;;-3.79;74.73;101941.41;1711231;82;21777;-74
2022/12/04 00:50:19;;;;;;;14.33;9.83;;;;;;;-3.83;74.79;101946.23;1702839;82;21100;-73
2022/12/04 00:52:46;;;;;;;17.92;12.40;;;;;;;-3.86;74.71;101942.39;1727407;82;21136;-72
2022/12/04 00:55:13;;;;;;;19.23;11.83;;;;;;;-3.91;74.80;101944.19;1732190;82;21065;-73
2022/12/04 00:57:39;;;;;;;14.75;9.58;;;;;;;-3.91;75.02;101938.14;1740675;81;21092;-74
2022/12/04 01:00:08;;;;;;;14.43;9.65;;;;;;;-3.86;75.10;101938.50;1715133;82;21231;-72
2022/12/04 01:02:34;;;;;;;17.10;8.98;;;;;;;-3.83;75.18;101940.19;1706463;82;21046;-73
2022/12/04 01:05:01;;;;;;;12.47;9.30;;;;;;;-3.82;75.16;101943.22;1724153;82;21006;-75
2022/12/04 01:07:30;;;;;;;14.25;9.73;;;;;;;-3.81;75.21;101934.08;1723954;82;21568;-73
2022/12/04 01:09:56;;;;;;;14.15;9.55;;;;;;;-3.75;75.28;101938.33;1744619;81;21013;-71
2022/12/04 01:12:23;;;;;;;14.68;10.65;;;;;;;-3.72;75.19;101941.34;1729608;82;21210;-74
2022/12/04 01:14:49;;;;;;;15.10;10.05;;;;;;;-3.67;74.93;101933.02;1726263;81;21064;-74
2022/12/04 01:17:16;;;;;;;17.62;11.20;;;;;;;-3.70;74.73;101936.53;1722337;82;21038;-75
2022/12/04 01:19:42;;;;;;;17.62;10.63;;;;;;;-3.76;74.69;101947.02;1704560;82;21111;-74
2022/12/04 01:22:08;;;;;;;14.65;10.18;;;;;;;-3.79;74.72;101949.64;1737908;81;20994;-74
2022/12/04 01:24:35;;;;;;;17.20;11.70;;;;;;;-3.82;74.66;101936.72;1686084;82;21228;-74
2022/12/04 01:27:02;;;;;;;14.33;10.13;;;;;;;-3.88;74.79;101940.27;1723577;82;21060;-74
2022/12/04 01:29:28;;;;;;;16.40;10.90;;;;;;;-3.86;75.06;101941.52;1731123;82;21112;-74
2022/12/04 01:31:55;;;;;;;14.07;9.70;;;;;;;-3.86;75.11;101941.52;1726021;82;21041;-74
2022/12/04 01:34:23;;;;;;;15.63;8.83;;;;;;;-3.88;75.13;101933.77;1729080;81;21056;-73
2022/12/04 01:36:50;;;;;;;13.72;9.28;;;;;;;-3.92;75.24;101941.19;1731446;82;21227;-72
2022/12/04 01:39:17;;;;;;;17.85;10.53;;;;;;;-3.97;75.30;101944.28;1721833;82;21116;-75
2022/12/04 01:41:43;;;;;;;13.95;9.50;;;;;;;-4.03;75.41;101944.38;1694173;83;21057;-70
2022/12/04 01:44:17;;;;;;;17.95;10.85;;;;;;;-4.07;75.74;101946.59;1717343;83;21085;-70
2022/12/04 01:46:48;;;;;;;15.65;9.65;;;;;;;-4.08;75.90;101947.01;1704368;83;21582;-71
2022/12/04 01:49:35;;;;;;;16.80;10.60;;;;;;;-4.15;76.04;101943.65;1695629;84;21077;-73
2022/12/04 01:52:06;;;;;;;16.32;9.20;;;;;;;-4.18;76.26;101946.72;1683558;83;21075;-72
2022/12/04 01:54:36;;;;;;;19.27;11.18;;;;;;;-4.18;76.57;101949.31;1693072;84;21022;-72
2022/12/04 01:57:14;;;;;;;19.65;10.70;;;;;;;-4.18;76.62;101942.83;1708445;82;21050;-71
2022/12/04 01:59:44;;;;;;;20.15;11.73;;;;;;;-4.23;76.79;101946.80;1697663;84;21556;-73
2022/12/04 02:02:14;;;;;;;16.27;10.25;;;;;;;-4.22;76.99;101942.45;1702338;84;21313;-74
2022/12/04 02:04:42;;;;;;;16.55;10.15;;;;;;;-4.21;76.97;101938.55;1683968;84;21046;-72
2022/12/04 02:07:09;;;;;;;14.65;9.28;;;;;;;-4.19;77.15;101949.77;1684106;84;21124;-73
2022/12/04 02:09:38;;;;;;;17.67;11.60;;;;;;;-4.15;77.17;101947.99;1707236;84;21034;-73
2022/12/04 02:12:19;;;;;;;15.80;10.30;;;;;;;-4.10;76.91;101945.32;1700188;84;21113;-73
2022/12/04 02:14:53;;;;;;;16.20;10.32;;;;;;;-4.13;77.04;101944.05;1705102;84;21595;-71
2022/12/04 02:17:28;;;;;;;15.63;9.23;;;;;;;-4.10;77.01;101942.28;1694374;84;21045;-74
2022/12/04 02:20:44;;;;;;;14.85;8.65;;;;;;;-4.10;77.12;101950.52;1694727;84;21074;-73
2022/12/04 02:23:43;;;;;;;16.42;9.68;;;;;;;-4.10;77.01;101943.58;1703214;84;21050;-73
2022/12/04 02:26:48;;;;;;;16.32;9.28;;;;;;;-4.10;77.03;101959.60;1691644;84;21039;-71
2022/12/04 02:29:32;;;;;;;16.93;10.15;;;;;;;-4.22;77.00;101955.43;1689206;84;21215;-73
2022/12/04 02:32:18;;;;;;;;;;;;;;;-4.35;77.45;101956.01;1706418;84;21022;-73
2022/12/04 02:35:07;;;;;;;17.35;9.90;;;;;;;-4.37;77.60;101953.88;1706551;83;20434;-74
2022/12/04 02:37:37;;;;;;;16.65;10.05;;;;;;;-4.39;77.89;101956.92;1720639;82;21036;-72
2022/12/04 02:40:08;;;;;;;18.02;10.10;;;;;;;-4.38;78.01;101958.21;1729617;82;21040;-73
2022/12/04 02:42:47;;;;;;;15.23;10.30;;;;;;;-4.35;77.97;101955.59;1682596;83;21721;-72
2022/12/04 02:45:18;;;;;;;14.95;9.28;;;;;;;-4.34;77.95;101956.45;1683380;84;21062;-74
2022/12/04 02:47:45;;;;;;;17.73;10.05;;;;;;;-4.36;78.06;101958.20;1687802;84;21021;-74
2022/12/04 02:50:14;;;;;;;17.07;10.00;;;;;;;-4.32;77.93;101955.98;1683930;83;21069;-74
2022/12/04 02:52:48;;;;;;;12.80;8.30;;;;;;;-4.30;77.97;101954.67;1687464;84;21340;-75
2022/12/04 02:55:38;;;;;;;15.63;9.43;;;;;;;-4.29;77.86;101959.82;1691725;84;21947;-74
2022/12/04 02:58:12;;;;;;;12.58;9.13;;;;;;;-4.27;77.83;101957.21;1697373;84;21078;-73
2022/12/04 03:00:40;;;;;;;11.85;8.45;;;;;;;-4.28;77.67;101953.77;1699436;84;21039;-73
2022/12/04 03:03:12;;;;;;;15.65;9.85;;;;;;;-4.30;77.76;101957.27;1699324;83;21087;-73
2022/12/04 03:05:59;;;;;;;;;;;;;;;-4.27;77.79;101952.91;1692538;83;21129;-73
2022/12/04 03:08:33;;;;;;;15.98;8.63;;;;;;;-4.23;77.82;101957.17;1698002;84;21154;-75
2022/12/04 03:11:00;;;;;;;15.43;9.70;;;;;;;-4.21;77.87;101952.82;1693689;84;21094;-74
2022/12/04 03:13:48;;;;;;;12.53;8.80;;;;;;;-4.13;77.75;101955.73;1693057;84;21066;-73
2022/12/04 03:16:24;;;;;;;14.80;10.25;;;;;;;-4.11;77.53;101970.44;1687719;84;21042;-74
2022/12/04 03:18:59;;;;;;;11.48;7.87;;;;;;;-4.14;77.04;101962.67;1671944;84;21106;-72
2022/12/04 03:21:29;;;;;;;13.28;9.30;;;;;;;-4.15;76.90;101962.27;1670942;84;21774;-73
2022/12/04 03:24:23;;;;;;;14.90;8.95;;;;;;;-4.16;76.51;101965.28;1691233;84;21616;-74
2022/12/04 03:27:14;;;;;;;13.93;9.20;;;;;;;-4.24;76.67;101959.34;1686721;84;21102;-74
2022/12/04 03:29:58;;;;;;;13.98;9.88;;;;;;;-4.29;76.76;101957.23;1694532;84;21057;-74
2022/12/04 03:32:56;;;;;;;16.75;9.68;;;;;;;-4.28;76.74;101956.36;1684384;84;21554;-73
2022/12/04 03:35:51;;;;;;;16.57;10.10;;;;;;;-4.27;77.09;101961.11;1685090;83;21257;-74
2022/12/04 03:38:29;;;;;;;14.45;9.65;;;;;;;-4.21;77.04;101965.80;1674699;82;21493;-73
2022/12/04 03:41:05;;;;;;;16.40;10.88;;;;;;;-4.19;77.03;101970.53;1727155;82;21044;-73
2022/12/04 03:43:49;;;;;;;19.50;10.85;;;;;;;-4.18;76.96;101970.08;1730322;82;21022;-74
2022/12/04 03:46:40;;;;;;;16.10;9.80;;;;;;;-4.22;76.83;101961.47;1685500;81;21119;-73
2022/12/04 03:49:23;;;;;;;17.55;10.48;;;;;;;-4.31;76.94;101971.95;1711734;82;21155;-72
2022/12/04 03:51:59;;;;;;;15.23;8.85;;;;;;;-4.38;77.11;101971.19;1725906;81;26086;-72
2022/12/04 03:54:32;;;;;;;15.23;10.80;;;;;;;-4.44;77.36;101975.57;1721734;81;21041;-73
2022/12/04 03:57:03;;;;;;;17.02;9.98;;;;;;;-4.43;77.31;101978.60;1709282;82;21033;-73
2022/12/04 03:59:41;;;;;;;15.90;10.20;;;;;;;-4.46;77.57;101981.22;1741182;81;21073;-73
2022/12/04 04:02:11;;;;;;;16.97;10.63;;;;;;;-4.47;77.53;101979.07;1729710;82;21094;-73
2022/12/04 04:04:39;;;;;;;19.07;10.40;;;;;;;-4.56;77.74;101979.16;1714304;82;21144;-73
2022/12/04 04:09:44;;;;;;;14.80;10.37;;;;;;;-4.59;78.22;101968.39;1825068;77;22756;-73
2022/12/04 04:12:21;;;;;;;16.90;11.43;;;;;;;-4.66;78.38;101975.81;1790057;78;21512;-72
2022/12/04 04:24:13;;;;;;;14.38;8.95;;;;;;;-4.62;78.46;101974.05;1781345;79;20985;-70
2022/12/04 04:25:49;;;;;;;15.58;9.75;;;;;;;-4.66;78.82;101968.03;1811820;78;21043;-71
2022/12/04 04:28:34;;;;;;;16.90;10.82;;;;;;;-4.59;79.05;101980.07;1817662;78;21136;-74
2022/12/04 04:31:22;;;;;;;14.90;10.28;;;;;;;-4.52;78.92;101989.08;1822543;77;20952;-72
2022/12/04 04:34:06;;;;;;;16.40;10.28;;;;;;;-4.50;78.76;101988.63;1809166;78;21051;-74
2022/12/04 04:37:17;;;;;;;15.95;10.10;;;;;;;-4.51;78.65;101993.41;1787347;80;21166;-74
2022/12/04 04:40:09;;;;;;;18.87;10.53;;;;;;;-4.56;78.51;101989.55;1748076;82;21337;-72
2022/12/04 04:43:04;;;;;;;18.90;11.08;;;;;;;-4.68;78.90;101989.69;1745563;82;21352;-73
2022/12/04 04:45:39;;;;;;;16.48;10.60;;;;;;;-4.68;78.98;101980.16;1790267;78;21029;-74
2022/12/04 04:48:15;;;;;;;18.00;11.53;;;;;;;-4.74;79.24;101973.30;1818013;77;21571;-75
2022/12/04 04:50:41;;;;;;;19.00;11.45;;;;;;;-4.69;79.54;101979.75;1823873;78;21024;-74
2022/12/04 04:53:12;;;;;;;17.62;10.88;;;;;;;-4.59;79.52;101975.33;1812184;77;21658;-75
2022/12/04 04:55:38;;;;;;;18.40;11.50;;;;;;;-4.57;79.45;101977.02;1810863;77;21065;-73
2022/12/04 04:58:11;;;;;;;16.77;11.20;;;;;;;-4.49;79.34;101979.97;1823860;78;21005;-72
2022/12/04 05:00:37;;;;;;;15.13;9.60;;;;;;;-4.49;79.19;101985.16;1821822;78;21067;-74
2022/12/04 05:03:04;;;;;;;17.42;11.10;;;;;;;-4.51;79.02;101989.06;1816738;78;21051;-72
2022/12/04 05:05:31;;;;;;;19.35;10.78;;;;;;;-4.54;78.90;101991.68;1805451;78;21548;-75
2022/12/04 05:07:57;;;;;;;22.48;9.80;;;;;;;-4.62;78.92;101996.09;1787791;80;21762;-73
2022/12/04 05:10:24;;;;;;;17.25;11.22;;;;;;;-4.71;79.15;101998.78;1813853;78;21530;-76
2022/12/04 05:12:51;;;;;;;15.38;10.35;;;;;;;-4.72;79.21;101995.33;1782479;79;20994;-75
2022/12/04 05:15:17;;;;;;;17.60;10.82;;;;;;;-4.78;79.47;101998.84;1794498;78;21012;-74
2022/12/04 05:17:43;;;;;;;16.73;10.85;;;;;;;-4.77;79.40;101996.69;1807800;77;21041;-74
2022/12/04 05:20:10;;;;;;;15.93;9.70;;;;;;;-4.79;79.71;102001.03;1808854;78;21224;-74
2022/12/04 05:22:38;;;;;;;19.92;10.40;;;;;;;-4.70;79.71;102003.11;1819058;78;21469;-75
2022/12/04 05:25:05;;;;;;;18.87;11.40;;;;;;;-4.68;79.42;101998.31;1792513;79;21021;-75
2022/12/04 05:27:32;;;;;;;17.20;11.43;;;;;;;-4.70;79.50;101999.22;1796946;78;21011;-75
2022/12/04 05:29:58;;;;;;;15.50;9.50;;;;;;;-4.68;79.55;102000.06;1798455;77;21577;-73
2022/12/04 05:32:26;;;;;;;17.70;10.85;;;;;;;-4.70;79.58;101992.28;1816210;78;21493;-74
2022/12/04 05:34:54;;;;;;;17.82;10.45;;;;;;;-4.67;79.58;101988.82;1813253;78;21045;-72
2022/12/04 05:37:20;;;;;;;16.93;9.63;;;;;;;-4.69;79.69;101997.91;1795663;77;21517;-74
2022/12/04 05:39:47;;;;;;;16.05;9.83;;;;;;;-4.68;79.64;102002.20;1788663;78;21031;-74
2022/12/04 05:42:14;;;;;;;16.37;10.23;;;;;;;-4.70;79.54;101992.73;1811749;78;20993;-74
2022/12/04 05:44:41;;;;;;;14.05;9.50;;;;;;;-4.73;79.50;101998.82;1799768;78;21694;-74
2022/12/04 05:47:07;;;;;;;16.87;9.65;;;;;;;-4.76;79.51;101997.54;1818171;77;21408;-73
2022/12/04 05:49:34;;;;;;;15.83;9.98;;;;;;;-4.84;79.61;102005.39;1769112;79;21024;-73
2022/12/04 05:52:01;;;;;;;18.77;9.78;;;;;;;-4.85;79.82;102004.95;1811959;78;21040;-71
2022/12/04 05:54:28;;;;;;;16.73;9.40;;;;;;;-4.86;79.96;101998.52;1795143;80;21061;-72
2022/12/04 05:56:55;;;;;;;15.15;10.00;;;;;;;-4.87;80.00;102005.41;1810156;78;21090;-73
2022/12/04 05:59:21;;;;;;;17.48;10.15;;;;;;;-4.85;80.04;102009.29;1802005;77;20997;-74
2022/12/04 06:01:48;;;;;;;16.75;9.58;;;;;;;-4.83;79.96;102010.13;1797968;78;21488;-70
2022/12/04 06:04:16;;;;;;;14.47;8.90;;;;;;;-4.85;79.94;102009.29;1800271;78;20992;-68
2022/12/04 06:06:42;;;;;;;16.12;8.90;;;;;;;-4.83;79.99;102007.54;1798287;78;21052;-71
2022/12/04 06:09:09;;;;;;;15.20;8.98;;;;;;;-4.85;80.06;102011.88;1812870;78;21138;-70
2022/12/04 06:11:38;;;;;;;16.48;9.40;;;;;;;-4.85;79.99;102016.63;1820635;77;21077;-71
2022/12/04 06:14:06;;;;;;;18.15;9.05;;;;;;;-4.87;79.97;102010.59;1827425;77;21039;-71
2022/12/04 06:16:37;;;;;;;18.17;9.48;;;;;;;-4.87;79.99;102008.45;1821316;78;21035;-72
2022/12/04 06:19:07;;;;;;;14.23;9.65;;;;;;;-4.83;79.90;102014.02;1807426;78;21583;-71
2022/12/04 06:21:37;;;;;;;18.25;10.10;;;;;;;-4.84;80.01;102012.32;1799909;78;21160;-69
2022/12/04 06:24:05;;;;;;;17.85;10.20;;;;;;;-4.78;80.06;102013.55;1831736;77;21035;-69
2022/12/04 06:26:32;;;;;;;16.32;10.10;;;;;;;-4.74;79.94;102019.13;1783401;79;21046;-70
2022/12/04 06:28:58;;;;;;;13.93;9.00;;;;;;;-4.70;79.82;102029.05;1803827;79;21520;-68
2022/12/04 06:31:27;;;;;;;15.35;9.65;;;;;;;-4.69;79.62;102027.73;1781591;78;21036;-69
2022/12/04 06:33:54;;;;;;;16.35;9.55;;;;;;;-4.75;79.56;102023.47;1793141;78;21771;-70
2022/12/04 06:36:22;;;;;;;17.15;8.38;;;;;;;-4.74;79.58;102029.50;1791303;78;21520;-70
2022/12/04 06:38:50;;;;;;;13.32;8.43;;;;;;;-4.79;79.60;102029.56;1806992;78;21017;-69
2022/12/04 06:41:18;;;;;;;14.45;9.68;;;;;;;-4.81;79.65;102040.80;1797040;78;21087;-69
2022/12/04 06:43:45;;;;;;;15.70;9.03;;;;;;;-4.92;79.82;102041.36;1825816;77;21040;-70
2022/12/04 06:46:15;;;;;;;15.15;8.55;;;;;;;-4.95;80.04;102042.22;1807772;78;21314;-70
2022/12/04 06:48:41;;;;;;;16.52;9.20;;;;;;;-5.04;80.29;102039.28;1821676;77;21404;-71
2022/12/04 06:51:11;;;;;;;14.93;8.60;;;;;;;-5.06;80.41;102025.89;1808454;77;20985;-70
2022/12/04 06:53:38;;;;;;;15.28;8.65;;;;;;;-5.07;80.56;102037.14;1788626;78;21017;-72
2022/12/04 06:56:08;;;;;;;15.20;9.23;;;;;;;-5.09;80.61;102041.48;1804552;78;21029;-72
2022/12/04 06:58:34;;;;;;;11.70;8.03;;;;;;;-5.07;80.63;102045.77;1801931;78;21147;-69
2022/12/04 07:01:09;;;;;;;14.00;9.35;;;;;;;-5.06;80.56;102046.63;1797850;78;20985;-70
2022/12/04 07:03:36;;;;;;;15.95;8.18;;;;;;;-5.05;80.72;102043.17;1801749;79;21384;-70
2022/12/04 07:06:16;;;;;;;15.28;8.48;;;;;;;-4.99;80.64;102039.23;1792217;79;21010;-72
2022/12/04 07:08:43;;;;;;;14.55;8.85;;;;;;;-4.91;80.19;102036.13;1783550;78;21103;-72
2022/12/04 07:11:11;;;;;;;15.72;7.70;;;;;;;-4.90;79.90;102043.50;1801824;77;21510;-72
2022/12/04 07:13:38;;;;;;;13.30;8.98;;;;;;;-4.90;80.15;102042.20;1818076;77;21041;-69
2022/12/04 07:16:06;;;;;;;11.90;7.47;;;;;;;-4.82;80.01;102048.17;1824012;78;21037;-70
2022/12/04 07:18:33;;;;;;;14.83;9.35;;;;;;;-4.81;79.59;102041.69;1819769;78;21048;-70
2022/12/04 07:21:01;;;;;;;11.77;7.97;;;;;;;-4.78;79.49;102049.41;1833329;77;21510;-71
2022/12/04 07:23:28;;;;;;;12.95;7.67;;;;;;;-4.73;79.49;102044.20;1826545;78;21069;-72
2022/12/04 07:25:55;;;;;;;15.60;8.85;;;;;;;-4.70;79.35;102045.45;1803441;77;21041;-72
2022/12/04 07:28:21;;;;;;;13.32;8.58;;;;;;;-4.66;79.24;102035.47;1825322;77;21026;-72
2022/12/04 07:30:47;;;;;;;14.93;8.18;;;;;;;-4.63;79.07;102043.23;1829457;77;20997;-71
2022/12/04 07:33:14;;;;;;;14.25;8.13;;;;;;;-4.65;78.97;102037.66;1826314;78;21001;-70
2022/12/04 07:35:40;;;;;;;15.65;8.85;;;;;;;-4.66;78.98;102042.40;1826583;77;21817;-73
2022/12/04 07:38:07;;;;;;;17.02;9.20;;;;;;;-4.68;78.95;102033.33;1825427;77;20982;-71
2022/12/04 07:40:33;;;;;;;15.70;8.45;;;;;;;-4.70;79.03;102042.01;1815347;77;21218;-71
2022/12/04 07:43:00;;;;;;;13.93;7.85;;;;;;;-4.70;79.22;102033.78;1794364;78;21594;-71
2022/12/04 07:45:26;;;;;;;14.05;8.45;;;;;;;-4.71;79.25;102042.87;1824783;77;21099;-70
2022/12/04 07:47:53;;;;;;;13.00;8.83;;;;;;;-4.69;79.35;102045.89;1821036;78;21387;-69
2022/12/04 07:50:19;;;;;;;15.55;8.18;;;;;;;-4.68;79.45;102051.93;1817519;77;21031;-72
2022/12/04 07:52:46;;;;;;;12.82;8.03;;;;;;;-4.64;79.30;102043.24;1815614;78;20997;-72
2022/12/04 07:55:12;;;;;;;12.85;7.62;;;;;;;-4.64;78.92;102045.84;1825602;77;21518;-71
2022/12/04 07:57:39;;;;;;;12.37;8.45;;;;;;;-4.72;78.81;102059.32;1825123;76;20997;-71
2022/12/04 08:00:07;;;;;;;14.63;8.78;;;;;;;-4.74;78.72;102054.99;1824935;77;21082;-71
2022/12/04 08:02:36;;;;;;;11.22;7.83;;;;;;;-4.82;78.95;102046.42;1821957;78;21020;-73
2022/12/04 08:05:03;;;;;;;13.90;8.70;;;;;;;-4.80;79.08;102042.09;1814008;78;21504;-73
2022/12/04 08:07:29;;;;;;;14.50;8.63;;;;;;;-4.77;79.14;102046.38;1834527;77;21037;-72
2022/12/04 08:09:56;;;;;;;15.05;8.78;;;;;;;-4.76;79.15;102056.74;1768659;78;21024;-71
2022/12/04 08:12:22;;;;;;;12.40;8.00;;;;;;;-4.72;78.92;102048.95;1782132;78;21183;-72
2022/12/04 08:14:49;;;;;;;12.43;8.45;;;;;;;-4.75;78.86;102048.55;1778352;77;21516;-72
2022/12/04 08:17:16;;;;;;;15.15;8.03;;;;;;;-4.77;78.92;102045.97;1792310;77;21486;-71
2022/12/04 08:19:42;;;;;;;12.20;7.95;;;;;;;-4.76;78.96;102049.41;1784162;78;21005;-71
2022/12/04 08:22:08;;;;;;;11.65;7.25;;;;;;;-4.70;78.92;102040.72;1799118;77;21094;-70
2022/12/04 08:24:35;;;;;;;14.80;8.55;;;;;;;-4.70;78.75;102038.97;1779704;79;21253;-69
2022/12/04 08:27:02;;;;;;;13.90;8.40;;;;;;;-4.68;78.58;102038.52;1789208;79;21005;-69
2022/12/04 08:29:28;;;;;;;13.40;8.33;;;;;;;-4.67;78.71;102043.29;1772527;79;21054;-69
2022/12/04 08:31:55;;;;;;;14.30;8.43;;;;;;;-4.64;78.55;102041.95;1788051;78;21100;-70
2022/12/04 08:34:21;;;;;;;15.28;7.90;;;;;;;-4.64;78.43;102038.05;1768327;79;20999;-67
2022/12/04 08:36:48;;;;;;;11.57;7.58;;;;;;;-4.64;78.36;102038.91;1774672;80;21271;-69
2022/12/04 08:39:14;;;;;;;12.10;8.08;;;;;;;-4.61;78.40;102036.74;1779490;80;20986;-69
2022/12/04 08:41:41;;;;;;;12.25;7.83;;;;;;;-4.59;78.37;102029.80;1775357;80;21462;-69
2022/12/04 08:44:08;;;;;;;13.25;9.15;;;;;;;-4.57;78.10;102028.91;1787134;78;21569;-69
2022/12/04 08:46:34;;;;;;;10.32;6.90;;;;;;;-4.53;78.14;102024.99;1790505;79;21060;-70
2022/12/04 08:49:01;;;;;;;13.95;8.48;;;;;;;-4.51;78.03;102034.91;1782418;79;21136;-70
2022/12/04 08:51:29;;;;;;;11.88;8.15;;;;;;;-4.44;78.06;102043.03;1782019;78;21091;-69
2022/12/04 08:54:01;;;;;;;12.07;8.40;;;;;;;-4.37;77.83;102038.21;1774001;80;21348;-70
2022/12/04 08:56:28;;;;;;;13.13;8.63;;;;;;;-4.33;77.61;102028.21;1786533;79;21107;-70
2022/12/04 08:58:56;;;;;;;12.55;8.20;;;;;;;-4.30;77.21;102028.64;1769788;79;21077;-71
2022/12/04 09:01:24;;;;;;;13.30;8.08;;;;;;;-4.35;77.04;102028.67;1824240;77;21891;-68
2022/12/04 09:03:51;;;;;;;14.98;8.58;;;;;;;-4.33;76.81;102030.81;1786299;78;21005;-71
2022/12/04 09:06:17;;;;;;;11.43;7.72;;;;;;;-4.38;76.74;102025.68;1795537;78;21075;-70
2022/12/04 09:08:45;;;;;;;15.80;9.45;;;;;;;-4.39;76.47;102030.88;1818260;77;21115;-70
2022/12/04 09:11:14;;;;;;;14.53;8.90;;;;;;;-4.41;76.45;102022.26;1816890;77;20984;-71
2022/12/04 09:13:41;;;;;;;12.10;8.75;;;;;;;-4.43;76.57;102030.05;1793722;80;21153;-70
2022/12/04 09:16:11;;;;;;;13.15;7.72;;;;;;;-4.40;76.52;102025.29;1794798;79;21084;-70
2022/12/04 09:18:38;;;;;;;14.90;8.38;;;;;;;-4.35;76.24;102022.19;1796570;78;21123;-70
2022/12/04 09:21:08;;;;;;;12.53;8.23;;;;;;;-4.35;76.14;102028.67;1807736;78;20997;-70
2022/12/04 09:23:35;;;;;;;14.20;8.10;;;;;;;-4.35;75.87;102015.28;1822615;77;21064;-69
2022/12/04 09:26:02;;;;;;;11.65;8.65;;;;;;;-4.35;75.75;102018.30;1807747;78;21136;-68
2022/12/04 09:28:28;;;;;;;11.65;8.15;;;;;;;-4.33;75.86;102021.73;1822868;78;21552;-69
2022/12/04 09:31:03;;;;;;;13.98;8.68;;;;;;;-4.31;75.75;102019.13;1779531;79;20997;-69
2022/12/04 09:33:31;;;;;;;16.00;9.75;;;;;;;-4.28;75.69;102019.09;1791732;78;21066;-70
2022/12/04 09:35:58;;;;;;;12.28;8.15;;;;;;;-4.24;75.44;102011.70;1780278;78;21642;-69
2022/12/04 09:38:26;;;;;;;11.12;7.95;;;;;;;-4.25;75.49;102024.23;1778739;79;21143;-68
2022/12/04 09:41:08;;;;;;;12.65;8.60;;;;;;;-4.22;74.87;102022.47;1793919;78;21013;-68
2022/12/04 09:43:57;;;;;;;15.60;7.45;;;;;;;-4.28;74.69;102017.36;1796758;78;21036;-70
2022/12/04 09:46:40;;;;;;;12.45;8.73;;;;;;;-4.32;74.59;102010.93;1788185;78;21697;-70
2022/12/04 09:49:14;;;;;;;14.95;8.53;;;;;;;-4.31;74.55;102016.53;1791069;78;21554;-69
2022/12/04 09:51:41;;;;;;;14.47;9.15;;;;;;;-4.33;74.70;102013.09;1794655;78;21156;-71
2022/12/04 09:54:17;;;;;;;13.22;8.30;;;;;;;-4.30;74.56;102000.95;1809892;77;21524;-69
2022/12/04 09:56:59;;;;;;;14.70;8.48;;;;;;;-4.28;74.18;102004.38;1776962;79;21160;-70
2022/12/04 09:59:28;;;;;;;13.50;7.92;;;;;;;-4.28;73.96;101999.19;1785663;78;21608;-69
2022/12/04 10:02:16;;;;;;;12.80;7.83;;;;;;;-4.32;74.01;101993.61;1789622;78;21512;-70
2022/12/04 10:04:43;;;;;;;11.75;7.87;;;;;;;-4.35;73.93;101989.33;1788410;78;21239;-67
2022/12/04 10:07:17;;;;;;;14.73;8.75;;;;;;;-4.32;73.63;101988.42;1790642;78;21057;-69
2022/12/04 10:09:58;;;;;;;13.45;7.65;;;;;;;-4.31;73.64;102000.95;1778940;79;21017;-68
2022/12/04 10:12:56;;;;;;;13.43;8.40;;;;;;;-4.35;72.93;102000.13;1791404;78;21006;-70
2022/12/04 10:15:59;;;;;;;13.15;8.53;;;;;;;-4.43;72.76;101990.28;1770734;78;21047;-68
2022/12/04 10:19:17;;;;;;;14.58;8.48;;;;;;;-4.49;73.08;101979.97;1788169;78;21098;-68
2022/12/04 10:22:11;;;;;;;13.03;8.73;;;;;;;-4.48;73.32;101984.27;1787837;78;21021;-67
2022/12/04 10:24:48;;;;;;;12.33;7.92;;;;;;;-4.39;73.37;101970.75;1780913;78;21061;-68
2022/12/04 10:27:29;;;;;;;13.72;8.48;;;;;;;-4.20;73.11;101973.14;1798172;78;21005;-67
2022/12/04 10:30:03;;;;;;;11.20;7.97;;;;;;;-3.86;72.40;101970.97;1786427;78;21519;-68
2022/12/04 10:32:31;;;;;;;15.38;8.58;;;;;;;-3.33;72.02;101971.03;1784353;78;21238;-69
2022/12/04 10:35:22;;;;;;;10.30;7.75;;;;;;;-2.46;70.16;101963.86;1782743;78;21017;-69
2022/12/04 10:38:06;;;;;;;12.70;8.20;;;;;;;-1.59;68.09;101973.70;1780379;78;21276;-68
2022/12/04 10:40:37;;;;;;;16.93;9.60;;;;;;;-0.76;66.18;101970.79;1794193;78;21005;-69
2022/12/04 10:43:21;;;;;;;13.30;9.43;;;;;;;0.24;64.15;101961.87;1784779;78;21139;-69
2022/12/04 10:45:48;;;;;;;14.23;8.63;;;;;;;1.07;62.10;101965.71;1796110;78;21260;-70
2022/12/04 10:48:32;;;;;;;14.23;9.33;;;;;;;2.02;60.01;101962.27;1787450;78;21541;-69
2022/12/04 10:50:58;;;;;;;14.63;10.23;;;;;;;2.75;56.43;101960.27;1787461;78;20978;-70
2022/12/04 10:53:31;;;;;;;14.63;9.23;;;;;;;3.07;56.46;101954.98;1791238;78;21052;-71
2022/12/04 10:56:11;;;;;;;15.60;10.15;;;;;;;3.07;56.46;101954.98;1790760;78;21093;-68
2022/12/04 10:58:37;;;;;;;13.43;9.20;;;;;;;3.35;53.84;101946.73;1795330;79;21744;-70
2022/12/04 11:01:11;;;;;;;14.98;10.28;;;;;;;3.16;53.71;101939.27;1790452;79;21050;-71
2022/12/04 11:03:37;;;;;;;12.10;9.53;;;;;;;3.06;53.64;101935.34;1783499;78;21006;-69
2022/12/04 11:06:05;;;;;;;13.85;9.48;;;;;;;2.94;52.68;101935.41;1789469;78;21029;-68
2022/12/04 11:08:41;;;;;;;12.60;8.78;;;;;;;2.78;52.97;101935.18;1800738;78;21083;-70
2022/12/04 11:11:11;;;;;;;14.20;9.45;;;;;;;2.59;52.40;101927.67;1786314;78;21215;-71
2022/12/04 11:13:38;;;;;;;13.88;9.70;;;;;;;2.39;53.34;101928.03;1777884;79;21081;-70
2022/12/04 11:16:05;;;;;;;16.35;10.50;;;;;;;2.31;53.31;101924.41;1778034;78;20997;-70
2022/12/04 11:18:34;;;;;;;12.63;8.98;;;;;;;2.32;53.56;101918.72;1780825;78;21057;-70
2022/12/04 11:21:09;;;;;;;13.40;8.40;;;;;;;2.28;53.55;101919.30;1787545;78;21573;-70
2022/12/04 11:23:45;;;;;;;15.32;8.13;;;;;;;2.20;53.38;101924.44;1769032;79;21103;-68
2022/12/04 11:26:12;;;;;;;11.75;7.90;;;;;;;2.05;53.38;101916.27;1781462;79;21002;-67
2022/12/04 11:28:42;;;;;;;15.15;8.08;;;;;;;2.09;53.59;101916.55;1778947;78;21034;-68
2022/12/04 11:31:09;;;;;;;13.58;8.40;;;;;;;2.15;52.96;101911.52;1787785;78;21137;-68
2022/12/04 11:33:54;;;;;;;12.85;7.10;;;;;;;2.16;53.08;101916.71;1788627;78;21059;-70
2022/12/04 11:36:25;;;;;;;11.60;7.75;;;;;;;2.07;52.49;101914.91;1775939;78;21759;-70
2022/12/04 11:38:53;;;;;;;10.35;7.55;;;;;;;1.82;52.83;101915.84;1781077;78;21044;-70
2022/12/04 11:41:30;;;;;;;11.00;6.95;;;;;;;1.89;52.86;101913.83;1776784;79;21068;-69
2022/12/04 11:43:57;;;;;;;8.58;6.28;;;;;;;2.21;52.91;101916.98;1782275;78;21112;-70
2022/12/04 11:46:26;;;;;;;12.82;7.30;;;;;;;2.46;52.39;101910.29;1776449;78;21048;-70
2022/12/04 11:48:53;;;;;;;9.35;7.20;;;;;;;2.47;51.82;101905.42;1788398;78;21095;-70